createdAt,value
2019-05-23T00:01:33.713Z,99.90
2019-05-23T00:04:15.005Z,99.90
2019-05-23T00:06:45.189Z,99.90
2019-05-23T00:09:15.455Z,99.90
2019-05-23T00:11:56.186Z,99.90
2019-05-23T00:14:37.886Z,99.90
2019-05-23T00:17:10.848Z,99.90
2019-05-23T00:19:41.045Z,99.90
2019-05-23T00:22:11.529Z,99.90
2019-05-23T00:24:42.732Z,99.90
2019-05-23T00:27:13.028Z,99.90
2019-05-23T00:29:45.655Z,99.90
2019-05-23T00:32:27.086Z,99.90
2019-05-23T00:34:57.572Z,99.90
2019-05-23T00:37:30.251Z,99.90
2019-05-23T00:40:01.299Z,99.90
2019-05-23T00:42:31.978Z,99.90
2019-05-23T00:45:02.741Z,99.90
2019-05-23T00:47:33.430Z,99.90
2019-05-23T00:50:06.432Z,99.90
2019-05-23T00:52:37.488Z,99.90
2019-05-23T00:55:08.562Z,99.90
2019-05-23T00:57:42.241Z,99.90
2019-05-23T01:00:15.868Z,99.90
2019-05-23T01:02:46.476Z,99.90
2019-05-23T01:05:17.440Z,99.90
2019-05-23T01:07:48.459Z,99.90
2019-05-23T01:10:19.358Z,99.90
2019-05-23T01:12:50.111Z,99.90
2019-05-23T01:15:22.537Z,99.90
2019-05-23T01:17:53.718Z,99.90
2019-05-23T01:20:31.214Z,99.90
2019-05-23T01:23:02.702Z,99.90
2019-05-23T01:25:33.508Z,99.90
2019-05-23T01:28:03.032Z,99.90
2019-05-23T01:30:38.179Z,99.90
2019-05-23T01:33:07.851Z,99.90
2019-05-23T01:35:38.794Z,99.90
2019-05-23T01:38:08.335Z,99.90
2019-05-23T01:40:38.016Z,99.90
2019-05-23T01:43:07.919Z,99.90
2019-05-23T01:45:38.509Z,99.90
2019-05-23T01:48:07.496Z,99.90
2019-05-23T01:50:36.827Z,99.90
2019-05-23T01:53:07.579Z,99.90
2019-05-23T01:55:36.655Z,99.90
2019-05-23T01:58:06.743Z,99.90
2019-05-23T02:00:35.779Z,99.90
2019-05-23T02:03:05.271Z,99.90
2019-05-23T02:05:34.539Z,99.90
2019-05-23T02:08:04.970Z,99.90
2019-05-23T02:10:34.998Z,99.90
2019-05-23T02:13:04.102Z,99.90
2019-05-23T02:15:34.818Z,99.90
2019-05-23T02:18:04.591Z,99.90
2019-05-23T02:20:35.222Z,99.90
2019-05-23T02:23:04.654Z,99.90
2019-05-23T02:25:35.244Z,99.90
2019-05-23T02:28:04.507Z,99.90
2019-05-23T02:30:35.757Z,99.90
2019-05-23T02:33:05.591Z,99.90
2019-05-23T02:35:35.314Z,99.90
2019-05-23T02:38:22.415Z,99.90
2019-05-23T02:41:13.870Z,99.90
2019-05-23T02:43:47.343Z,99.90
2019-05-23T02:46:29.556Z,99.90
2019-05-23T02:49:04.103Z,99.90
2019-05-23T02:51:37.059Z,99.90
2019-05-23T02:54:09.583Z,99.90
2019-05-23T02:56:40.046Z,99.90
2019-05-23T02:59:21.598Z,99.90
2019-05-23T03:02:43.326Z,99.90
2019-05-23T03:05:14.492Z,99.90
2019-05-23T03:07:45.328Z,99.90
2019-05-23T03:10:18.957Z,99.90
2019-05-23T03:12:49.501Z,99.90
2019-05-23T03:15:19.286Z,99.90
2019-05-23T03:17:52.543Z,99.90
2019-05-23T03:20:22.049Z,99.90
2019-05-23T03:22:57.018Z,99.90
2019-05-23T03:26:19.848Z,99.90
2019-05-23T03:28:49.645Z,99.90
2019-05-23T03:31:31.942Z,99.90
2019-05-23T03:34:00.232Z,99.90
2019-05-23T03:36:29.903Z,99.90
2019-05-23T03:38:59.131Z,99.90
2019-05-23T03:41:30.405Z,99.90
2019-05-23T03:44:01.575Z,99.90
2019-05-23T03:46:32.535Z,99.90
2019-05-23T03:49:02.122Z,99.90
2019-05-23T03:51:31.882Z,99.90
2019-05-23T03:54:02.354Z,99.90
2019-05-23T03:56:31.726Z,99.90
2019-05-23T03:59:01.738Z,99.90
2019-05-23T04:01:47.115Z,99.90
2019-05-23T04:04:03.152Z,99.90
2019-05-23T04:06:32.993Z,99.90
2019-05-23T04:09:03.801Z,99.90
2019-05-23T04:11:32.821Z,99.90
2019-05-23T04:14:01.821Z,99.90
2019-05-23T04:16:31.036Z,99.90
2019-05-23T04:19:00.571Z,99.90
2019-05-23T04:21:29.617Z,99.90
2019-05-23T04:23:59.037Z,99.90
2019-05-23T04:26:28.562Z,99.90
2019-05-23T04:28:58.167Z,99.90
2019-05-23T04:31:27.416Z,99.90
2019-05-23T04:33:56.810Z,99.90
2019-05-23T04:36:25.954Z,99.90
2019-05-23T04:38:54.999Z,99.90
2019-05-23T04:41:24.438Z,99.90
2019-05-23T04:43:53.504Z,99.90
2019-05-23T04:46:22.674Z,99.90
2019-05-23T04:48:53.389Z,99.90
2019-05-23T04:51:23.966Z,99.90
2019-05-23T04:53:54.015Z,99.90
2019-05-23T04:56:23.933Z,99.90
2019-05-23T04:58:53.656Z,99.90
2019-05-23T05:01:22.987Z,99.90
2019-05-23T05:03:52.770Z,99.90
2019-05-23T05:06:21.818Z,99.90
2019-05-23T05:08:52.389Z,99.90
2019-05-23T05:11:22.017Z,99.90
2019-05-23T05:13:51.428Z,99.90
2019-05-23T05:16:21.059Z,99.90
2019-05-23T05:18:50.033Z,99.90
2019-05-23T05:21:19.288Z,99.90
2019-05-23T05:23:48.259Z,99.90
2019-05-23T05:26:23.638Z,99.90
2019-05-23T05:28:52.729Z,99.90
2019-05-23T05:31:21.859Z,99.90
2019-05-23T05:33:50.824Z,99.90
2019-05-23T05:36:20.126Z,99.90
2019-05-23T05:38:50.527Z,99.90
2019-05-23T05:41:20.523Z,99.90
2019-05-23T05:43:49.791Z,99.90
2019-05-23T05:46:19.833Z,99.90
2019-05-23T05:48:48.974Z,99.90
2019-05-23T05:51:18.023Z,99.90
2019-05-23T05:53:47.958Z,99.90
2019-05-23T05:56:17.223Z,99.90
2019-05-23T05:58:47.285Z,99.90
2019-05-23T06:01:32.983Z,99.90
2019-05-23T06:03:49.939Z,99.90
2019-05-23T06:06:32.821Z,99.90
2019-05-23T06:09:07.043Z,99.90
2019-05-23T06:11:36.157Z,99.90
2019-05-23T06:14:06.558Z,99.90
2019-05-23T06:16:35.902Z,99.90
2019-05-23T06:19:06.310Z,99.90
2019-05-23T06:21:35.382Z,99.90
2019-05-23T06:24:05.607Z,99.90
2019-05-23T06:26:34.826Z,99.90
2019-05-23T06:29:04.250Z,99.90
2019-05-23T06:31:33.584Z,99.90
2019-05-23T06:34:03.376Z,99.90
2019-05-23T06:36:33.040Z,99.90
2019-05-23T06:39:02.740Z,99.90
2019-05-23T06:41:32.391Z,99.90
2019-05-23T06:44:01.857Z,99.90
2019-05-23T06:46:31.109Z,99.90
2019-05-23T06:49:01.475Z,99.90
2019-05-23T06:51:31.103Z,99.90
2019-05-23T06:54:00.579Z,99.90
2019-05-23T06:56:29.701Z,99.90
2019-05-23T06:58:58.902Z,99.90
2019-05-23T07:01:28.624Z,99.90
2019-05-23T07:03:58.077Z,99.90
2019-05-23T07:06:27.187Z,99.90
2019-05-23T07:08:56.520Z,99.90
2019-05-23T07:11:26.625Z,99.90
2019-05-23T07:13:56.319Z,99.90
2019-05-23T07:16:26.004Z,99.90
2019-05-23T07:18:55.121Z,99.90
2019-05-23T07:21:25.067Z,99.90
2019-05-23T07:23:54.208Z,99.90
2019-05-23T07:26:23.629Z,99.90
2019-05-23T07:28:53.155Z,99.90
2019-05-23T07:31:22.299Z,99.90
2019-05-23T07:34:01.059Z,99.90
2019-05-23T07:36:22.187Z,99.90
2019-05-23T07:38:51.251Z,99.90
2019-05-23T07:41:20.739Z,99.90
2019-05-23T07:43:49.699Z,99.90
2019-05-23T07:46:18.781Z,96.70
2019-05-23T07:48:48.201Z,94.30
2019-05-23T07:51:17.315Z,93.10
2019-05-23T07:54:04.660Z,91.40
2019-05-23T07:56:36.338Z,91.50
2019-05-23T07:59:05.522Z,86.70
2019-05-23T08:01:38.209Z,88.20
2019-05-23T08:04:20.683Z,82.50
2019-05-23T08:06:39.960Z,83.80
2019-05-23T08:09:09.588Z,88.10
2019-05-23T08:11:39.091Z,88.70
2019-05-23T08:14:11.855Z,89.80
2019-05-23T08:16:39.268Z,87.10
2019-05-23T08:19:08.508Z,83.40
2019-05-23T08:21:37.702Z,81.20
2019-05-23T08:24:07.529Z,79.70
2019-05-23T08:26:36.969Z,77.60
2019-05-23T08:29:24.742Z,82.10
2019-05-23T08:31:37.782Z,81.30
2019-05-23T08:34:07.316Z,79.10
2019-05-23T08:36:36.478Z,79.60
2019-05-23T08:39:08.746Z,73.70
2019-05-23T08:41:38.556Z,71.60
2019-05-23T08:44:11.425Z,68.40
2019-05-23T08:46:39.483Z,69.40
2019-05-23T08:49:08.983Z,70.20
2019-05-23T08:51:38.445Z,72.40
2019-05-23T08:54:07.664Z,70.00
2019-05-23T08:56:37.405Z,67.70
2019-05-23T08:59:07.526Z,68.90
2019-05-23T09:01:36.974Z,68.30
2019-05-23T09:04:06.856Z,69.40
2019-05-23T09:06:35.927Z,65.40
2019-05-23T09:09:27.677Z,60.00
2019-05-23T09:11:40.897Z,60.50
2019-05-23T09:14:12.072Z,61.80
2019-05-23T09:16:40.890Z,64.30
2019-05-23T09:19:10.177Z,63.40
2019-05-23T09:21:39.342Z,63.20
2019-05-23T09:24:09.739Z,61.90
2019-05-23T09:26:38.763Z,59.50
2019-05-23T09:29:08.245Z,60.00
2019-05-23T09:31:37.742Z,60.70
2019-05-23T09:34:06.824Z,59.00
2019-05-23T09:36:36.177Z,58.10
2019-05-23T09:39:08.570Z,60.60
2019-05-23T09:41:38.164Z,60.80
2019-05-23T09:44:07.691Z,59.10
2019-05-23T09:46:36.754Z,58.00
2019-05-23T09:49:05.992Z,57.70
2019-05-23T09:51:34.948Z,59.00
2019-05-23T09:54:04.062Z,61.50
2019-05-23T09:56:33.521Z,61.30
2019-05-23T09:59:02.663Z,63.90
2019-05-23T10:01:31.762Z,61.60
2019-05-23T10:04:01.102Z,57.60
2019-05-23T10:06:30.523Z,57.70
2019-05-23T10:08:59.933Z,56.90
2019-05-23T10:11:29.034Z,57.70
2019-05-23T10:13:58.226Z,58.10
2019-05-23T10:16:27.692Z,59.30
2019-05-23T10:18:56.865Z,58.70
2019-05-23T10:21:26.163Z,58.10
2019-05-23T10:23:55.179Z,57.20
2019-05-23T10:26:24.474Z,58.20
2019-05-23T10:28:53.434Z,58.70
2019-05-23T10:31:22.535Z,55.70
2019-05-23T10:33:51.587Z,57.70
2019-05-23T10:36:21.028Z,56.60
2019-05-23T10:38:50.058Z,57.80
2019-05-23T10:41:19.289Z,57.10
2019-05-23T10:43:48.283Z,57.30
2019-05-23T10:46:17.465Z,55.10
2019-05-23T10:48:47.278Z,56.90
2019-05-23T10:51:16.220Z,56.80
2019-05-23T10:53:45.182Z,56.10
2019-05-23T10:56:14.463Z,54.20
2019-05-23T10:58:43.792Z,55.90
2019-05-23T11:01:13.052Z,53.70
2019-05-23T11:03:42.434Z,54.10
2019-05-23T11:06:16.190Z,57.50
2019-05-23T11:08:42.887Z,56.00
2019-05-23T11:11:14.644Z,56.60
2019-05-23T11:13:45.179Z,56.30
2019-05-23T11:16:14.609Z,57.20
2019-05-23T11:18:43.937Z,54.20
2019-05-23T11:21:13.238Z,54.60
2019-05-23T11:23:47.075Z,55.40
2019-05-23T11:26:16.307Z,53.90
2019-05-23T11:28:45.419Z,56.00
2019-05-23T11:31:15.255Z,54.80
2019-05-23T11:33:44.349Z,55.00
2019-05-23T11:36:14.369Z,53.50
2019-05-23T11:38:43.659Z,55.30
2019-05-23T11:41:13.041Z,54.60
2019-05-23T11:43:43.747Z,55.00
2019-05-23T11:46:31.641Z,56.20
2019-05-23T11:49:01.395Z,55.60
2019-05-23T11:51:30.664Z,53.70
2019-05-23T11:54:07.574Z,55.40
2019-05-23T11:56:31.911Z,55.30
2019-05-23T11:59:02.021Z,55.70
2019-05-23T12:01:53.929Z,54.10
2019-05-23T12:04:26.238Z,54.50
2019-05-23T12:07:12.403Z,55.60
2019-05-23T12:09:41.877Z,55.70
2019-05-23T12:12:11.227Z,55.50
2019-05-23T12:14:41.893Z,55.70
2019-05-23T12:17:12.641Z,53.30
2019-05-23T12:19:42.317Z,52.60
2019-05-23T12:22:12.423Z,52.90
2019-05-23T12:24:41.464Z,53.50
2019-05-23T12:27:11.995Z,54.00
2019-05-23T12:29:41.128Z,53.70
2019-05-23T12:32:11.917Z,55.40
2019-05-23T12:34:41.030Z,54.00
2019-05-23T12:37:20.168Z,53.20
2019-05-23T12:39:41.069Z,54.20
2019-05-23T12:42:10.264Z,55.40
2019-05-23T12:44:39.415Z,55.20
2019-05-23T12:47:14.105Z,55.00
2019-05-23T12:49:47.935Z,53.20
2019-05-23T12:52:17.062Z,52.00
2019-05-23T12:54:46.480Z,52.10
2019-05-23T12:57:16.028Z,52.20
2019-05-23T12:59:45.294Z,53.30
2019-05-23T13:02:19.817Z,53.80
2019-05-23T13:04:49.063Z,52.30
2019-05-23T13:07:34.499Z,51.50
2019-05-23T13:09:49.253Z,51.10
2019-05-23T13:12:18.377Z,51.60
2019-05-23T13:14:47.491Z,51.80
2019-05-23T13:17:16.526Z,53.10
2019-05-23T13:19:45.939Z,52.20
2019-05-23T13:22:15.095Z,51.30
2019-05-23T13:24:52.649Z,53.70
2019-05-23T13:27:15.922Z,52.30
2019-05-23T13:29:45.303Z,51.20
2019-05-23T13:32:14.439Z,51.70
2019-05-23T13:34:43.829Z,50.60
2019-05-23T13:37:16.953Z,52.20
2019-05-23T13:39:46.249Z,53.70
2019-05-23T13:42:15.308Z,53.50
2019-05-23T13:44:44.619Z,52.40
2019-05-23T13:47:13.681Z,52.00
2019-05-23T13:49:42.763Z,51.70
2019-05-23T13:52:11.932Z,51.70
2019-05-23T13:54:40.931Z,51.30
2019-05-23T13:57:11.222Z,52.30
2019-05-23T13:59:40.487Z,52.40
2019-05-23T14:02:09.979Z,52.30
2019-05-23T14:04:39.405Z,53.10
2019-05-23T14:07:10.600Z,52.40
2019-05-23T14:09:40.960Z,52.60
2019-05-23T14:12:25.308Z,53.50
2019-05-23T14:14:40.700Z,54.00
2019-05-23T14:17:22.426Z,54.20
2019-05-23T14:19:51.540Z,54.70
2019-05-23T14:22:21.733Z,53.00
2019-05-23T14:24:51.417Z,53.60
2019-05-23T14:27:40.301Z,53.60
2019-05-23T14:30:20.227Z,54.50
2019-05-23T14:32:54.572Z,55.20
2019-05-23T14:35:29.932Z,54.40
2019-05-23T14:38:00.976Z,53.00
2019-05-23T14:40:30.357Z,52.30
2019-05-23T14:43:13.607Z,51.40
2019-05-23T14:45:59.434Z,51.30
2019-05-23T14:48:59.562Z,52.80
2019-05-23T14:51:57.155Z,52.40
2019-05-23T14:54:35.060Z,52.70
2019-05-23T14:57:05.424Z,53.00
2019-05-23T14:59:34.757Z,54.10
2019-05-23T15:02:06.316Z,54.00
2019-05-23T15:04:35.310Z,53.90
2019-05-23T15:07:04.516Z,54.30
2019-05-23T15:09:33.631Z,53.90
2019-05-23T15:12:03.044Z,54.30
2019-05-23T15:14:32.035Z,55.70
2019-05-23T15:17:01.151Z,55.70
2019-05-23T15:19:41.839Z,55.50
2019-05-23T15:22:01.208Z,55.70
2019-05-23T15:24:30.711Z,54.70
2019-05-23T15:27:00.026Z,54.80
2019-05-23T15:29:29.560Z,54.00
2019-05-23T15:32:02.496Z,54.70
2019-05-23T15:34:29.675Z,54.60
2019-05-23T15:36:58.754Z,53.20
2019-05-23T15:39:28.310Z,53.70
2019-05-23T15:41:57.287Z,54.00
2019-05-23T15:44:29.203Z,54.10
2019-05-23T15:46:57.664Z,54.20
2019-05-23T15:49:26.611Z,53.90
2019-05-23T15:52:02.536Z,54.10
2019-05-23T15:54:46.650Z,54.40
2019-05-23T15:57:22.948Z,55.60
2019-05-23T15:59:57.132Z,54.50
2019-05-23T16:02:31.347Z,55.20
2019-05-23T16:05:02.255Z,55.10
2019-05-23T16:07:32.102Z,55.40
2019-05-23T16:10:01.434Z,55.00
2019-05-23T16:12:31.096Z,55.10
2019-05-23T16:15:00.084Z,55.00
2019-05-23T16:17:29.476Z,55.30
2019-05-23T16:19:58.610Z,54.80
2019-05-23T16:22:28.596Z,54.80
2019-05-23T16:24:57.710Z,54.60
2019-05-23T16:27:26.965Z,54.60
2019-05-23T16:29:56.130Z,53.80
2019-05-23T16:32:25.774Z,54.50
2019-05-23T16:34:54.857Z,54.60
2019-05-23T16:37:24.118Z,54.90
2019-05-23T16:39:53.283Z,54.30
2019-05-23T16:42:22.486Z,54.80
2019-05-23T16:44:52.118Z,54.10
2019-05-23T16:47:21.953Z,54.70
2019-05-23T16:49:51.101Z,55.20
2019-05-23T16:52:20.400Z,56.00
2019-05-23T16:54:51.119Z,56.20
2019-05-23T16:57:39.325Z,56.20
2019-05-23T17:00:26.865Z,56.80
2019-05-23T17:03:04.195Z,58.50
2019-05-23T17:05:47.097Z,57.30
2019-05-23T17:08:29.173Z,56.70
2019-05-23T17:11:03.351Z,57.50
2019-05-23T17:13:42.398Z,57.30
2019-05-23T17:16:28.613Z,58.40
2019-05-23T17:19:26.420Z,57.20
2019-05-23T17:22:12.789Z,57.50
2019-05-23T17:24:48.050Z,56.10
2019-05-23T17:27:31.325Z,55.90
2019-05-23T17:30:19.605Z,56.60
2019-05-23T17:32:49.514Z,56.20
2019-05-23T17:35:18.892Z,57.10
2019-05-23T17:37:48.122Z,56.50
2019-05-23T17:40:25.012Z,56.80
2019-05-23T17:42:48.659Z,57.10
2019-05-23T17:45:18.226Z,57.10
2019-05-23T17:47:47.921Z,57.10
2019-05-23T17:50:17.388Z,56.30
2019-05-23T17:52:57.008Z,56.30
2019-05-23T17:55:28.115Z,56.20
2019-05-23T17:57:58.747Z,56.60
2019-05-23T18:00:34.296Z,57.00
2019-05-23T18:03:04.608Z,56.00
2019-05-23T18:05:34.740Z,56.10
2019-05-23T18:08:05.133Z,56.50
2019-05-23T18:10:44.727Z,56.20
2019-05-23T18:13:07.451Z,56.70
2019-05-23T18:15:36.911Z,56.40
2019-05-23T18:18:06.491Z,56.60
2019-05-23T18:20:37.370Z,57.40
2019-05-23T18:23:09.062Z,57.30
2019-05-23T18:25:39.779Z,57.10
2019-05-23T18:28:09.418Z,57.90
2019-05-23T18:30:57.982Z,58.20
2019-05-23T18:33:28.512Z,58.90
2019-05-23T18:35:57.835Z,59.20
2019-05-23T18:38:27.151Z,60.70
2019-05-23T18:41:04.064Z,60.40
2019-05-23T18:43:27.153Z,60.40
2019-05-23T18:45:59.794Z,60.80
2019-05-23T18:48:29.559Z,60.60
2019-05-23T18:50:59.138Z,60.80
2019-05-23T18:53:29.261Z,60.80
2019-05-23T18:55:58.916Z,61.20
2019-05-23T18:58:28.254Z,61.90
2019-05-23T19:01:03.412Z,61.40
2019-05-23T19:03:33.200Z,61.90
2019-05-23T19:06:02.236Z,63.20
2019-05-23T19:08:32.622Z,63.00
2019-05-23T19:11:01.659Z,63.40
2019-05-23T19:13:31.083Z,64.70
2019-05-23T19:16:00.210Z,65.10
2019-05-23T19:18:33.370Z,65.20
2019-05-23T19:21:02.387Z,65.90
2019-05-23T19:23:31.767Z,66.60
2019-05-23T19:26:01.801Z,67.50
2019-05-23T19:28:31.577Z,67.80
2019-05-23T19:31:00.747Z,68.10
2019-05-23T19:33:30.313Z,68.00
2019-05-23T19:35:59.785Z,68.60
2019-05-23T19:38:28.814Z,70.30
2019-05-23T19:40:58.343Z,71.60
2019-05-23T19:43:28.424Z,73.10
2019-05-23T19:45:57.463Z,75.30
2019-05-23T19:48:27.222Z,77.30
2019-05-23T19:50:57.090Z,79.30
2019-05-23T19:53:26.225Z,83.40
2019-05-23T19:55:55.370Z,86.80
2019-05-23T19:58:25.021Z,90.30
2019-05-23T20:00:54.759Z,91.50
2019-05-23T20:03:23.980Z,94.00
2019-05-23T20:05:54.794Z,95.00
2019-05-23T20:08:23.878Z,97.00
2019-05-23T20:10:52.979Z,97.30
2019-05-23T20:13:22.735Z,97.40
2019-05-23T20:15:52.114Z,98.70
2019-05-23T20:18:21.683Z,98.60
2019-05-23T20:20:51.382Z,97.80
2019-05-23T20:23:20.839Z,99.10
2019-05-23T20:25:49.893Z,99.90
2019-05-23T20:28:19.071Z,99.90
2019-05-23T20:30:53.366Z,99.90
2019-05-23T20:33:22.435Z,99.20
2019-05-23T20:35:51.640Z,98.70
2019-05-23T20:38:20.943Z,98.20
2019-05-23T20:40:54.296Z,96.40
2019-05-23T20:43:23.311Z,95.70
2019-05-23T20:45:52.471Z,95.50
2019-05-23T20:48:22.182Z,94.90
2019-05-23T20:50:51.191Z,95.10
2019-05-23T20:53:20.354Z,94.90
2019-05-23T20:55:49.350Z,95.20
2019-05-23T20:58:18.474Z,95.00
2019-05-23T21:01:06.604Z,95.10
2019-05-23T21:03:36.204Z,95.70
2019-05-23T21:06:06.540Z,96.10
2019-05-23T21:08:36.093Z,96.30
2019-05-23T21:11:05.238Z,96.60
2019-05-23T21:13:34.515Z,96.90
2019-05-23T21:16:03.784Z,97.10
2019-05-23T21:18:32.864Z,97.10
2019-05-23T21:21:01.920Z,97.50
2019-05-23T21:23:31.040Z,97.70
2019-05-23T21:26:04.192Z,97.80
2019-05-23T21:28:33.347Z,98.40
2019-05-23T21:31:03.747Z,98.70
2019-05-23T21:33:32.791Z,98.80
2019-05-23T21:36:01.759Z,99.30
2019-05-23T21:38:30.739Z,99.70
2019-05-23T21:41:03.164Z,99.90
2019-05-23T21:43:30.516Z,99.90
2019-05-23T21:45:59.826Z,99.90
2019-05-23T21:48:28.819Z,99.90
2019-05-23T21:50:57.774Z,99.90
2019-05-23T21:53:26.744Z,99.90
2019-05-23T21:55:55.831Z,99.90
2019-05-23T21:58:24.955Z,99.90
2019-05-23T22:01:30.017Z,99.90
2019-05-23T22:04:09.915Z,99.90
2019-05-23T22:06:39.555Z,99.90
2019-05-23T22:09:11.450Z,99.90
2019-05-23T22:11:40.592Z,99.90
2019-05-23T22:14:09.722Z,99.90
2019-05-23T22:16:39.108Z,99.90
2019-05-23T22:19:10.639Z,99.90
2019-05-23T22:21:39.805Z,99.90
2019-05-23T22:24:09.603Z,99.90
2019-05-23T22:26:39.747Z,99.90
2019-05-23T22:29:09.856Z,99.90
2019-05-23T22:31:39.593Z,99.90
2019-05-23T22:34:37.955Z,99.90
2019-05-23T22:37:15.297Z,99.90
2019-05-23T22:39:44.438Z,99.90
2019-05-23T22:42:15.067Z,99.90
2019-05-23T22:44:44.412Z,99.90
2019-05-23T22:47:13.483Z,99.90
2019-05-23T22:49:42.483Z,99.90
2019-05-23T22:52:11.582Z,99.90
2019-05-23T22:54:40.597Z,99.90
2019-05-23T22:57:09.880Z,99.90
2019-05-23T22:59:38.983Z,99.90
2019-05-23T23:02:11.984Z,99.90
2019-05-23T23:04:40.884Z,99.90
2019-05-23T23:07:10.497Z,99.90
2019-05-23T23:09:39.914Z,99.90
2019-05-23T23:12:09.262Z,99.90
2019-05-23T23:14:38.359Z,99.90
2019-05-23T23:17:07.874Z,99.90
2019-05-23T23:19:36.953Z,99.90
2019-05-23T23:22:07.693Z,99.90
2019-05-23T23:24:36.818Z,99.90
2019-05-23T23:27:06.115Z,99.90
2019-05-23T23:29:35.327Z,99.90
2019-05-23T23:32:04.751Z,99.90
2019-05-23T23:34:34.032Z,99.90
2019-05-23T23:37:03.172Z,99.90
2019-05-23T23:39:32.253Z,99.90
2019-05-23T23:42:01.363Z,99.90
2019-05-23T23:44:35.448Z,99.90
2019-05-23T23:47:23.352Z,99.90
2019-05-23T23:50:10.459Z,99.90
2019-05-23T23:52:58.356Z,99.90
2019-05-23T23:55:45.594Z,99.90
2019-05-23T23:58:13.814Z,99.90
